Time;durP1;ratioP1;P1;durP2;ratioP2;P2;SDS_P1;SDS_P2;PMS_P1;PMS_P2;Temp;Humidity;BMP_temperature;BMP_pressure;BME280_temperature;BME280_humidity;BME280_pressure;Samples;Min_cycle;Max_cycle;Signal;HPM_P1;HPM_P2
2022/02/17 00:00:02;;;;;;;29.05;14.63;;;;;;;2.43;99.49;100113.56;1747978;82;21300;-85
2022/02/17 00:03:09;;;;;;;22.50;14.18;;;;;;;2.47;99.60;100101.52;1748185;82;21763;-77
2022/02/17 00:06:14;;;;;;;28.25;14.05;;;;;;;2.47;99.66;100096.98;1747880;82;21944;-76
2022/02/17 00:09:20;;;;;;;27.15;14.70;;;;;;;2.46;99.78;100083.62;1747526;82;21690;-76
2022/02/17 00:12:25;;;;;;;26.45;14.43;;;;;;;2.43;100.00;100081.17;1747117;82;21339;-76
2022/02/17 00:15:33;;;;;;;24.85;15.03;;;;;;;2.43;100.00;100085.22;1747837;82;21350;-85
2022/02/17 00:18:39;;;;;;;24.57;14.80;;;;;;;2.46;100.00;100070.13;1747989;82;21177;-80
2022/02/17 00:21:45;;;;;;;26.77;14.53;;;;;;;2.46;100.00;100066.92;1747848;82;21347;-78
2022/02/17 00:24:50;;;;;;;20.35;13.78;;;;;;;2.45;100.00;100062.52;1747853;80;21161;-77
2022/02/17 00:27:55;;;;;;;26.57;15.05;;;;;;;2.46;100.00;100057.97;1747791;82;21319;-85
2022/02/17 00:31:01;;;;;;;21.02;14.07;;;;;;;2.50;100.00;100062.12;1747843;82;21730;-85
2022/02/17 00:34:05;;;;;;;25.68;15.30;;;;;;;2.54;100.00;100049.58;1748045;82;21315;-77
2022/02/17 00:37:11;;;;;;;21.75;14.15;;;;;;;2.64;100.00;100043.39;1747601;82;21314;-85
2022/02/17 00:40:18;;;;;;;28.30;15.90;;;;;;;2.71;100.00;100044.06;1748103;80;21169;-84
2022/02/17 00:43:24;;;;;;;27.00;15.38;;;;;;;2.76;100.00;100039.61;1745652;82;21943;-76
2022/02/17 00:46:31;;;;;;;25.88;14.98;;;;;;;2.81;100.00;100037.37;1747827;82;21331;-75
2022/02/17 00:49:37;;;;;;;19.73;13.60;;;;;;;2.86;100.00;100027.52;1748028;82;21331;-84
2022/02/17 00:52:44;;;;;;;22.27;14.47;;;;;;;2.92;100.00;100026.50;1747142;82;21327;-75
2022/02/17 00:55:50;;;;;;;26.33;15.75;;;;;;;2.97;100.00;100022.90;1747731;81;21829;-75
2022/02/17 00:58:56;;;;;;;26.68;15.60;;;;;;;3.05;100.00;100030.31;1747979;82;21323;-85
2022/02/17 01:02:02;;;;;;;27.75;16.45;;;;;;;3.10;100.00;100032.11;1747440;82;21964;-76
2022/02/17 01:05:07;;;;;;;27.17;16.70;;;;;;;3.14;100.00;100016.48;1747997;82;21702;-79
2022/02/17 01:08:12;;;;;;;24.85;15.53;;;;;;;3.18;100.00;100019.28;1748017;82;21288;-85
2022/02/17 01:11:17;;;;;;;22.90;15.03;;;;;;;3.21;100.00;100002.80;1747916;81;21387;-76
2022/02/17 01:14:23;;;;;;;25.20;13.58;;;;;;;3.24;100.00;100005.21;1748049;82;21817;-76
2022/02/17 01:17:44;;;;;;;28.98;15.88;;;;;;;3.28;100.00;99999.39;1747887;82;21212;-76
2022/02/17 01:21:08;;;;;;;22.15;13.58;;;;;;;3.36;100.00;99995.16;1748256;82;21240;-76
2022/02/17 01:24:29;;;;;;;21.37;13.60;;;;;;;3.46;100.00;99987.93;1748165;82;21284;-85
2022/02/17 01:27:36;;;;;;;25.32;14.45;;;;;;;3.52;100.00;99984.66;1746744;81;21185;-76
2022/02/17 01:30:58;;;;;;;24.10;13.55;;;;;;;3.59;100.00;99995.30;1748213;82;21133;-84
2022/02/17 01:34:21;;;;;;;23.05;14.15;;;;;;;3.63;100.00;99986.41;1747976;82;21144;-83
2022/02/17 01:37:46;;;;;;;27.30;15.68;;;;;;;3.64;100.00;99990.32;1747265;82;21244;-76
2022/02/17 01:41:09;;;;;;;30.65;16.45;;;;;;;3.66;100.00;99979.34;1747832;81;21125;-84
2022/02/17 01:44:15;;;;;;;25.48;15.72;;;;;;;3.65;100.00;99973.09;1728190;82;21193;-76
2022/02/17 01:47:28;;;;;;;23.95;15.32;;;;;;;3.64;100.00;99969.19;1747013;82;21338;-84
2022/02/17 01:50:50;;;;;;;26.62;15.98;;;;;;;3.66;100.00;99972.09;1748263;82;21133;-82
2022/02/17 01:54:13;;;;;;;25.00;16.62;;;;;;;3.70;100.00;99968.61;1747925;82;21117;-83
2022/02/17 01:57:36;;;;;;;32.00;18.40;;;;;;;3.71;100.00;99975.22;1747225;81;21339;-76
2022/02/17 02:00:44;;;;;;;27.60;17.10;;;;;;;3.71;100.00;99971.16;1748250;82;21153;-84
2022/02/17 02:03:50;;;;;;;25.70;16.50;;;;;;;3.69;100.00;99974.52;1748229;82;21288;-77
2022/02/17 02:07:11;;;;;;;28.55;17.40;;;;;;;3.66;100.00;99963.12;1748034;82;21157;-76
2022/02/17 02:10:17;;;;;;;28.62;15.93;;;;;;;3.60;99.48;99964.55;1747353;82;21864;-82
2022/02/17 02:13:23;;;;;;;27.45;15.88;;;;;;;3.55;99.14;99962.25;1747234;80;21303;-76
2022/02/17 02:16:28;;;;;;;29.05;16.48;;;;;;;3.52;98.90;99967.08;1747572;82;21299;-76
2022/02/17 02:19:34;;;;;;;27.27;15.65;;;;;;;3.44;98.71;99969.15;1747622;82;21825;-77
2022/02/17 02:22:56;;;;;;;26.48;15.03;;;;;;;3.41;98.67;99978.87;1747478;82;21196;-84
2022/02/17 02:26:17;;;;;;;26.35;15.18;;;;;;;3.30;98.65;99972.25;1748211;82;21694;-85
2022/02/17 02:29:23;;;;;;;21.93;15.48;;;;;;;3.26;98.72;99977.06;1748136;82;21299;-84
2022/02/17 02:32:29;;;;;;;27.00;15.35;;;;;;;3.21;98.63;99980.68;1748103;82;21354;-84
2022/02/17 02:35:34;;;;;;;26.12;15.20;;;;;;;3.21;98.66;99989.29;1747884;82;21287;-76
2022/02/17 02:38:39;;;;;;;24.60;14.45;;;;;;;3.20;98.45;99984.38;1747890;82;21849;-81
2022/02/17 02:41:47;;;;;;;21.87;14.13;;;;;;;3.18;98.22;99978.73;1747966;82;21869;-76
2022/02/17 02:44:52;;;;;;;26.05;15.43;;;;;;;3.11;98.05;99984.34;1747752;82;21291;-76
2022/02/17 02:47:57;;;;;;;23.42;14.70;;;;;;;3.07;98.05;99987.31;1697717;84;21318;-77
2022/02/17 02:51:03;;;;;;;31.70;17.10;;;;;;;3.07;97.98;99990.02;1697966;84;21331;-85
2022/02/17 02:54:02;;;;;;;30.17;15.38;;;;;;;3.09;97.86;99995.27;1695101;83;21284;-76
2022/02/17 02:57:08;;;;;;;33.70;18.07;;;;;;;3.13;97.71;99995.36;1692924;83;21245;-81
2022/02/17 03:00:16;;;;;;;24.25;15.08;;;;;;;3.16;97.35;100001.01;1692604;85;21310;-76
2022/02/17 03:03:22;;;;;;;25.40;14.93;;;;;;;3.19;97.12;99996.66;1692592;83;21356;-76
2022/02/17 03:06:29;;;;;;;24.23;15.30;;;;;;;3.18;96.82;99995.80;1692622;83;21323;-76
2022/02/17 03:09:35;;;;;;;24.87;14.90;;;;;;;3.19;96.67;99998.86;1692628;85;21705;-79
2022/02/17 03:12:44;;;;;;;26.15;14.05;;;;;;;3.16;96.46;99988.34;1692391;83;21319;-84
2022/02/17 03:15:49;;;;;;;26.12;15.50;;;;;;;3.11;96.43;99983.00;1692533;85;21291;-76
2022/02/17 03:18:55;;;;;;;22.52;14.53;;;;;;;3.00;96.57;99977.17;1692446;85;21694;-83
2022/02/17 03:22:02;;;;;;;22.48;14.58;;;;;;;2.92;96.87;99968.91;1692498;83;21939;-84
2022/02/17 03:25:08;;;;;;;21.20;14.50;;;;;;;2.83;97.25;99968.38;1692465;83;21275;-84
2022/02/17 03:28:13;;;;;;;23.10;14.20;;;;;;;2.73;97.68;99957.03;1692316;85;21755;-85
2022/02/17 03:31:28;;;;;;;23.85;14.53;;;;;;;2.67;98.17;99964.30;1692471;85;21343;-84
2022/02/17 03:34:34;;;;;;;30.68;14.55;;;;;;;2.63;98.73;99948.00;1692491;85;21299;-76
2022/02/17 03:37:43;;;;;;;25.37;14.15;;;;;;;2.61;99.16;99941.89;1692208;85;21375;-77
2022/02/17 03:40:51;;;;;;;21.95;15.13;;;;;;;2.61;99.54;99941.03;1662825;86;21687;-76
2022/02/17 03:43:58;;;;;;;27.20;14.80;;;;;;;2.60;99.83;99938.83;1662519;86;21343;-76
2022/02/17 03:47:08;;;;;;;23.02;14.15;;;;;;;2.59;100.00;99935.78;1673707;84;21667;-76
2022/02/17 03:50:24;;;;;;;23.87;15.10;;;;;;;2.58;100.00;99928.64;1703266;84;21299;-79
2022/02/17 03:53:33;;;;;;;22.75;13.70;;;;;;;2.58;100.00;99928.64;1703789;83;21165;-83
2022/02/17 03:56:37;;;;;;;27.85;13.83;;;;;;;2.58;100.00;99921.05;1704829;84;21799;-76
2022/02/17 03:59:48;;;;;;;23.83;14.47;;;;;;;2.58;100.00;99915.64;1702694;84;21299;-84
2022/02/17 04:02:55;;;;;;;24.50;15.03;;;;;;;2.55;100.00;99912.73;1678129;84;21342;-84
2022/02/17 04:06:01;;;;;;;25.68;15.08;;;;;;;2.52;100.00;99911.14;1704717;84;21283;-76
2022/02/17 04:09:07;;;;;;;27.73;15.13;;;;;;;2.49;100.00;99906.50;1704920;83;21892;-76
2022/02/17 04:12:08;;;;;;;24.43;14.65;;;;;;;2.49;100.00;99900.63;1704782;84;21322;-84
2022/02/17 04:15:14;;;;;;;25.82;14.75;;;;;;;2.51;100.00;99896.44;1704494;84;21310;-76
2022/02/17 04:18:20;;;;;;;28.62;15.68;;;;;;;2.48;100.00;99890.80;1704688;84;21311;-84
2022/02/17 04:21:33;;;;;;;24.07;14.73;;;;;;;2.46;100.00;99891.94;1704632;84;21318;-84
2022/02/17 04:24:55;;;;;;;26.25;16.40;;;;;;;2.46;100.00;99881.14;1704815;83;21849;-77
2022/02/17 04:28:02;;;;;;;26.15;14.53;;;;;;;2.45;100.00;99874.05;1704865;84;21315;-84
2022/02/17 04:31:07;;;;;;;21.37;13.85;;;;;;;2.45;100.00;99872.69;1704904;84;21873;-84
2022/02/17 04:34:15;;;;;;;25.95;14.63;;;;;;;2.50;100.00;99870.44;1704902;84;21200;-76
2022/02/17 04:37:23;;;;;;;29.05;15.70;;;;;;;2.54;100.00;99863.28;1704516;84;21335;-76
2022/02/17 04:43:54;;;;;;;27.32;15.32;;;;;;;2.59;100.00;99860.64;1704862;84;21149;-78
2022/02/17 04:47:02;;;;;;;28.38;14.38;;;;;;;2.62;100.00;99863.08;1704677;84;21212;-83
2022/02/17 04:50:07;;;;;;;24.20;14.10;;;;;;;2.62;100.00;99852.28;1692491;85;21875;-82
2022/02/17 04:53:12;;;;;;;28.87;17.17;;;;;;;2.63;100.00;99846.73;1694060;81;21202;-77
2022/02/17 04:56:19;;;;;;;38.40;18.20;;;;;;;2.65;100.00;99846.12;1704764;84;21278;-85
2022/02/17 04:59:25;;;;;;;35.52;19.50;;;;;;;2.67;100.00;99841.92;1704831;84;21287;-76
2022/02/17 05:02:31;;;;;;;39.40;19.48;;;;;;;2.67;100.00;99835.17;1704682;84;21358;-84
2022/02/17 05:05:38;;;;;;;36.30;19.05;;;;;;;2.64;100.00;99828.22;1681875;84;21723;-84
2022/02/17 05:08:44;;;;;;;32.65;16.35;;;;;;;2.63;100.00;99821.08;1710462;81;21818;-83
2022/02/17 05:11:51;;;;;;;24.00;14.68;;;;;;;2.65;100.00;99828.56;1721650;83;21799;-76
2022/02/17 05:14:57;;;;;;;27.87;14.98;;;;;;;2.67;100.00;99822.52;1721305;81;21315;-75
2022/02/17 05:18:06;;;;;;;28.83;15.80;;;;;;;2.67;100.00;99815.77;1721588;83;21343;-76
2022/02/17 05:21:12;;;;;;;28.73;16.20;;;;;;;2.64;100.00;99809.31;1721625;83;21335;-84
2022/02/17 05:24:35;;;;;;;26.17;15.88;;;;;;;2.61;100.00;99809.58;1721394;83;21869;-84
2022/02/17 05:27:58;;;;;;;27.30;15.83;;;;;;;2.58;100.00;99803.59;1721589;83;21319;-76
2022/02/17 05:31:14;;;;;;;30.00;16.62;;;;;;;2.57;100.00;99795.98;1719359;82;21181;-75
2022/02/17 05:34:23;;;;;;;28.25;14.78;;;;;;;2.58;100.00;99788.73;1718608;83;21690;-83
2022/02/17 05:37:34;;;;;;;29.67;15.95;;;;;;;2.55;100.00;99783.13;1705134;83;21240;-77
2022/02/17 05:40:42;;;;;;;25.70;14.33;;;;;;;2.53;100.00;99780.55;1717520;83;21339;-84
2022/02/17 05:43:51;;;;;;;26.70;15.03;;;;;;;2.55;100.00;99776.39;1720392;83;21304;-84
2022/02/17 05:46:56;;;;;;;24.05;14.75;;;;;;;2.53;100.00;99771.09;1715712;83;21292;-83
2022/02/17 05:50:02;;;;;;;27.98;15.60;;;;;;;2.55;100.00;99765.59;1714574;82;21897;-83
2022/02/17 05:53:09;;;;;;;22.95;14.33;;;;;;;2.59;100.00;99761.62;1698756;83;21323;-84
2022/02/17 05:56:14;;;;;;;25.15;14.58;;;;;;;2.62;100.00;99761.32;1697170;84;21262;-84
2022/02/17 05:59:19;;;;;;;21.85;14.43;;;;;;;2.65;100.00;99757.00;1700917;83;21817;-83
2022/02/17 06:02:24;;;;;;;21.75;13.62;;;;;;;2.65;100.00;99758.36;1703164;82;21366;-83
2022/02/17 06:05:28;;;;;;;22.42;13.55;;;;;;;2.68;100.00;99756.73;1713589;83;21272;-76
2022/02/17 06:08:34;;;;;;;22.30;12.68;;;;;;;2.72;100.00;99754.09;1706537;82;21649;-80
2022/02/17 06:11:39;;;;;;;20.25;12.58;;;;;;;2.83;100.00;99765.28;1699837;83;21319;-76
2022/02/17 06:14:44;;;;;;;23.45;12.98;;;;;;;2.95;100.00;99775.45;1709871;83;22141;-76
2022/02/17 06:17:49;;;;;;;17.85;12.50;;;;;;;3.02;100.00;99761.75;1715772;83;21174;-83
2022/02/17 06:20:54;;;;;;;22.40;12.33;;;;;;;3.07;100.00;99758.13;1746475;81;21394;-83
2022/02/17 06:23:59;;;;;;;23.60;13.22;;;;;;;3.06;100.00;99756.42;1755041;81;21158;-76
2022/02/17 06:27:03;;;;;;;21.17;12.75;;;;;;;3.00;100.00;99744.80;1748364;81;21296;-83
2022/02/17 06:30:11;;;;;;;23.80;13.40;;;;;;;2.95;100.00;99735.77;1746634;81;21310;-83
2022/02/17 06:33:17;;;;;;;20.97;13.45;;;;;;;2.95;100.00;99722.77;1752549;81;22330;-84
2022/02/17 06:36:23;;;;;;;20.30;13.50;;;;;;;2.89;100.00;99717.44;1743211;81;21205;-83
2022/02/17 06:39:29;;;;;;;23.07;12.98;;;;;;;2.87;100.00;99707.75;1742420;81;21603;-76
2022/02/17 06:42:34;;;;;;;24.75;14.07;;;;;;;2.90;100.00;99700.73;1752401;81;21266;-76
2022/02/17 06:45:42;;;;;;;25.50;14.80;;;;;;;2.92;100.00;99695.55;1757542;81;21288;-84
2022/02/17 06:48:48;;;;;;;24.70;13.30;;;;;;;2.94;100.00;99696.25;1750641;81;21314;-76
2022/02/17 06:51:53;;;;;;;25.40;14.35;;;;;;;2.95;100.00;99680.39;1756735;79;21343;-76
2022/02/17 06:54:59;;;;;;;23.25;13.50;;;;;;;2.95;99.94;99672.78;1757326;79;21872;-83
2022/02/17 06:58:05;;;;;;;28.00;13.83;;;;;;;2.95;99.84;99651.17;1719051;82;22179;-84
2022/02/17 07:01:12;;;;;;;24.80;15.23;;;;;;;3.00;99.68;99646.19;1700414;82;21337;-84
2022/02/17 07:04:18;;;;;;;27.67;13.08;;;;;;;3.02;99.27;99639.66;1699027;83;21280;-84
2022/02/17 07:07:23;;;;;;;19.82;12.95;;;;;;;3.05;98.84;99633.95;1711778;83;21283;-84
2022/02/17 07:13:53;;;;;;;20.12;12.13;;;;;;;3.12;98.52;99636.94;1716966;83;21666;-76
2022/02/17 07:16:59;;;;;;;23.80;12.85;;;;;;;3.15;98.39;99623.62;1715541;83;21858;-85
2022/02/17 07:20:04;;;;;;;21.57;13.05;;;;;;;3.18;98.20;99620.13;1713110;83;21307;-84
2022/02/17 07:23:10;;;;;;;23.55;13.20;;;;;;;3.21;98.29;99613.09;1708761;83;21339;-84
2022/02/17 07:26:15;;;;;;;26.57;13.95;;;;;;;3.29;98.47;99611.87;1711385;83;21849;-84
2022/02/17 07:29:20;;;;;;;23.73;13.62;;;;;;;3.39;98.35;99613.66;1722264;83;21287;-76
2022/02/17 07:32:25;;;;;;;25.37;13.18;;;;;;;3.47;98.20;99622.75;1719208;83;21316;-76
2022/02/17 07:35:30;;;;;;;21.00;12.75;;;;;;;3.54;98.02;99623.03;1723358;83;21712;-76
2022/02/17 07:38:36;;;;;;;20.77;12.90;;;;;;;3.63;97.74;99622.64;1720460;83;21191;-76
2022/02/17 07:41:43;;;;;;;18.62;12.50;;;;;;;3.72;97.40;99623.10;1723176;82;21586;-75
2022/02/17 07:44:49;;;;;;;20.77;12.95;;;;;;;3.81;96.98;99623.53;1719479;83;21892;-76
2022/02/17 07:47:56;;;;;;;16.52;11.88;;;;;;;3.92;96.09;99611.68;1716150;82;21490;-76
2022/02/17 07:51:12;;;;;;;21.33;12.50;;;;;;;4.05;95.17;99625.20;1687476;82;21355;-75
2022/02/17 07:54:19;;;;;;;26.15;14.93;;;;;;;4.23;94.20;99614.89;1719230;82;21295;-76
2022/02/17 07:57:24;;;;;;;24.43;13.83;;;;;;;4.38;92.70;99605.77;1725038;82;21713;-76
2022/02/17 08:00:30;;;;;;;21.35;13.48;;;;;;;4.50;91.41;99609.93;1717661;82;21300;-84
2022/02/17 08:03:37;;;;;;;22.32;13.60;;;;;;;4.63;89.86;99610.41;1718474;82;21220;-75
2022/02/17 08:06:43;;;;;;;22.25;14.45;;;;;;;4.80;89.22;99608.19;1710848;82;21842;-76
2022/02/17 08:09:48;;;;;;;21.48;12.03;;;;;;;4.96;88.06;99607.97;1710280;82;21354;-76
2022/02/17 08:12:54;;;;;;;15.30;10.23;;;;;;;5.00;86.16;99602.08;1713508;82;21311;-76
2022/02/17 08:16:00;;;;;;;18.92;11.63;;;;;;;5.01;85.27;99597.50;1712571;82;21218;-76
2022/02/17 08:19:07;;;;;;;21.65;11.63;;;;;;;5.04;85.00;99599.91;1711004;82;21469;-76
2022/02/17 08:22:14;;;;;;;20.72;11.43;;;;;;;5.12;84.35;99589.95;1715332;82;21825;-76
2022/02/17 08:25:22;;;;;;;17.25;10.90;;;;;;;5.20;83.99;99592.38;1716408;82;21339;-76
2022/02/17 08:28:28;;;;;;;17.23;10.00;;;;;;;5.28;83.70;99581.09;1713970;82;21894;-77
2022/02/17 08:31:38;;;;;;;19.62;12.10;;;;;;;5.29;82.94;99585.50;1716756;82;21708;-85
2022/02/17 08:34:49;;;;;;;16.60;10.13;;;;;;;5.37;83.26;99569.28;1715207;83;21376;-86
2022/02/17 08:38:00;;;;;;;15.72;10.48;;;;;;;5.46;81.55;99569.30;1718278;82;21650;-85
2022/02/17 08:41:06;;;;;;;17.62;11.00;;;;;;;5.44;81.41;99557.78;1719517;82;21845;-86
2022/02/17 08:44:06;;;;;;;17.12;10.35;;;;;;;5.41;81.74;99544.53;1713286;82;21193;-86
2022/02/17 08:47:17;;;;;;;15.25;10.13;;;;;;;5.41;81.93;99548.12;1713708;82;21866;-86
2022/02/17 08:50:22;;;;;;;13.13;9.08;;;;;;;5.43;81.88;99539.30;1716611;82;21228;-85
2022/02/17 08:53:28;;;;;;;14.85;10.25;;;;;;;5.45;82.82;99533.70;1717250;82;21710;-86
2022/02/17 08:56:35;;;;;;;20.72;11.50;;;;;;;5.46;82.87;99520.00;1753547;81;21312;-85
2022/02/17 08:59:41;;;;;;;16.40;10.40;;;;;;;5.49;82.91;99522.37;1751464;81;21268;-87
2022/02/17 09:02:46;;;;;;;15.72;9.95;;;;;;;5.55;83.91;99523.58;1705562;82;21661;-83
2022/02/17 09:05:46;;;;;;;15.38;9.55;;;;;;;5.57;83.44;99504.78;1753918;81;21317;-84
2022/02/17 09:08:52;;;;;;;17.70;10.80;;;;;;;5.62;83.78;99494.80;1750643;79;22198;-84
2022/02/17 09:11:57;;;;;;;16.07;10.03;;;;;;;5.69;83.73;99498.53;1751695;81;21255;-84
2022/02/17 09:15:05;;;;;;;15.08;9.50;;;;;;;5.82;84.63;99496.71;1752609;81;21909;-84
2022/02/17 09:18:12;;;;;;;14.47;9.98;;;;;;;5.96;84.16;99487.95;1753018;81;21338;-83
2022/02/17 09:21:18;;;;;;;18.27;10.43;;;;;;;5.99;84.01;99481.36;1736775;81;21796;-85
2022/02/17 09:24:23;;;;;;;15.35;9.95;;;;;;;6.01;83.06;99467.94;1733996;81;21388;-85
2022/02/17 09:27:29;;;;;;;15.00;9.70;;;;;;;6.08;82.73;99468.14;1758495;81;22217;-84
2022/02/17 09:30:34;;;;;;;14.15;9.60;;;;;;;6.21;83.04;99458.98;1755687;81;21276;-86
2022/02/17 09:33:41;;;;;;;13.10;9.43;;;;;;;6.29;82.59;99452.69;1756860;81;21354;-85
2022/02/17 09:36:46;;;;;;;14.28;9.38;;;;;;;6.38;81.82;99449.80;1752205;81;21842;-85
2022/02/17 09:39:51;;;;;;;14.58;9.73;;;;;;;6.49;81.21;99439.09;1745602;79;21885;-84
2022/02/17 09:43:03;;;;;;;16.55;8.90;;;;;;;6.65;80.16;99443.67;1757517;81;21256;-84
2022/02/17 09:46:11;;;;;;;13.30;9.58;;;;;;;6.87;79.29;99431.24;1760348;81;21175;-84
2022/02/17 09:49:17;;;;;;;12.03;9.10;;;;;;;6.97;78.45;99421.53;1761505;81;21150;-76
2022/02/17 09:52:16;;;;;;;13.55;8.43;;;;;;;7.02;78.04;99413.69;1750968;81;21196;-84
2022/02/17 09:55:21;;;;;;;12.82;8.40;;;;;;;7.08;78.06;99405.67;1753372;80;21204;-75
2022/02/17 09:58:28;;;;;;;13.45;8.48;;;;;;;7.20;77.67;99389.83;1762922;81;21323;-76
2022/02/17 10:01:36;;;;;;;11.60;9.38;;;;;;;7.27;76.10;99386.72;1722479;82;21315;-77
2022/02/17 10:04:47;;;;;;;14.03;8.88;;;;;;;7.30;75.47;99374.13;1751869;81;21201;-84
2022/02/17 10:07:54;;;;;;;14.25;9.13;;;;;;;7.37;75.32;99366.94;1744695;81;21742;-76
2022/02/17 10:11:00;;;;;;;15.72;8.45;;;;;;;7.43;74.60;99368.96;1752957;81;21663;-76
2022/02/17 10:14:16;;;;;;;11.25;8.25;;;;;;;7.57;75.29;99362.39;1753403;81;21329;-76
2022/02/17 10:17:23;;;;;;;15.63;9.88;;;;;;;7.69;75.18;99353.64;1756976;81;21169;-75
2022/02/17 10:20:29;;;;;;;12.78;8.28;;;;;;;7.76;73.38;99345.58;1761045;81;21719;-83
2022/02/17 10:23:38;;;;;;;12.78;8.23;;;;;;;7.72;72.57;99326.58;1746575;79;21347;-85
2022/02/17 10:26:42;;;;;;;12.35;8.23;;;;;;;7.73;73.07;99329.63;1748819;81;21574;-76
2022/02/17 10:29:47;;;;;;;14.95;9.25;;;;;;;7.75;73.11;99318.55;1743357;79;21217;-76
2022/02/17 10:33:07;;;;;;;18.80;8.33;;;;;;;7.80;73.65;99312.88;1740469;81;21311;-76
2022/02/17 10:36:12;;;;;;;15.63;9.23;;;;;;;7.86;72.76;99309.45;1752243;81;21826;-84
2022/02/17 10:39:26;;;;;;;11.78;8.60;;;;;;;7.92;72.96;99302.42;1746754;79;21649;-83
2022/02/17 10:42:32;;;;;;;14.25;7.92;;;;;;;7.98;72.06;99301.67;1748992;81;21637;-84
2022/02/17 10:45:38;;;;;;;12.07;7.72;;;;;;;7.99;71.65;99290.27;1754545;81;21197;-76
2022/02/17 10:48:48;;;;;;;13.90;8.40;;;;;;;8.02;71.19;99278.50;1754780;81;21372;-85
2022/02/17 10:51:53;;;;;;;12.85;7.70;;;;;;;8.04;71.27;99264.16;1735108;81;21390;-84
2022/02/17 10:55:18;;;;;;;16.37;9.90;;;;;;;8.08;69.93;99246.94;1751769;79;21243;-85
2022/02/17 10:58:28;;;;;;;13.48;7.70;;;;;;;8.10;68.62;99243.53;1762694;79;21322;-85
2022/02/17 11:01:34;;;;;;;9.70;7.30;;;;;;;8.16;67.37;99227.80;1763478;80;21719;-76
2022/02/17 11:04:39;;;;;;;9.08;6.65;;;;;;;8.23;66.45;99221.08;1740033;80;21232;-76
2022/02/17 11:07:50;;;;;;;11.95;7.08;;;;;;;8.28;65.60;99215.41;1759402;80;21283;-77
2022/02/17 11:11:01;;;;;;;11.80;7.50;;;;;;;8.35;64.96;99213.61;1760439;80;21694;-81
2022/02/17 11:14:17;;;;;;;12.63;7.60;;;;;;;8.38;63.49;99206.47;1755695;80;21173;-84
2022/02/17 11:17:23;;;;;;;12.55;7.75;;;;;;;8.42;63.79;99210.99;1770398;79;21188;-85
2022/02/17 11:20:28;;;;;;;9.03;6.87;;;;;;;8.51;63.87;99208.50;1768206;80;21240;-75
2022/02/17 11:23:42;;;;;;;12.53;6.87;;;;;;;8.58;62.97;99199.06;1752717;79;21213;-76
2022/02/17 11:26:52;;;;;;;11.15;7.30;;;;;;;8.60;62.75;99186.91;1749458;80;21922;-76
2022/02/17 11:29:59;;;;;;;10.40;7.65;;;;;;;8.58;62.59;99184.91;1717347;82;21298;-76
2022/02/17 11:33:40;;;;;;;10.48;7.12;;;;;;;8.59;62.29;99183.03;1698957;84;21165;-76
2022/02/17 11:36:47;;;;;;;13.50;7.67;;;;;;;8.63;62.43;99180.25;1680845;83;21201;-77
2022/02/17 11:40:15;;;;;;;10.90;7.53;;;;;;;8.66;62.34;99179.36;1707296;83;21699;-84
2022/02/17 11:43:21;;;;;;;8.40;6.55;;;;;;;8.68;62.23;99180.00;1705413;83;21195;-85
2022/02/17 11:46:52;;;;;;;9.15;6.70;;;;;;;8.67;62.07;99165.20;1717628;82;21321;-85
2022/02/17 11:49:59;;;;;;;10.18;6.75;;;;;;;8.64;62.34;99168.30;1705773;83;21964;-76
2022/02/17 11:53:37;;;;;;;10.55;6.55;;;;;;;8.60;62.65;99165.11;1712557;83;21310;-76
2022/02/17 11:56:48;;;;;;;8.68;6.55;;;;;;;8.61;62.41;99156.41;1701699;83;21344;-76
2022/02/17 11:59:50;;;;;;;8.35;6.42;;;;;;;8.58;62.09;99145.91;1699468;82;21276;-76
2022/02/17 12:03:00;;;;;;;11.40;7.50;;;;;;;8.58;62.65;99141.83;1761209;81;21323;-84
2022/02/17 12:06:10;;;;;;;16.95;7.58;;;;;;;8.57;61.75;99130.08;1759857;81;21406;-76
2022/02/17 12:09:16;;;;;;;9.28;7.28;;;;;;;8.61;61.74;99125.06;1756917;79;21504;-85
2022/02/17 12:12:31;;;;;;;13.55;7.90;;;;;;;8.64;61.88;99126.89;1752959;79;21350;-77
2022/02/17 12:15:36;;;;;;;9.15;6.85;;;;;;;8.66;62.06;99110.37;1767437;79;21574;-76
2022/02/17 12:18:44;;;;;;;11.00;8.05;;;;;;;8.66;62.00;99092.65;1754540;79;21790;-77
2022/02/17 12:21:54;;;;;;;11.40;7.78;;;;;;;8.69;61.91;99075.88;1754683;81;21162;-77
2022/02/17 12:24:59;;;;;;;15.75;10.43;;;;;;;8.74;61.97;99069.33;1751772;81;21754;-76
2022/02/17 12:28:08;;;;;;;11.97;8.40;;;;;;;8.78;60.85;99052.91;1764705;81;21193;-76
2022/02/17 12:31:13;;;;;;;16.00;8.20;;;;;;;8.85;60.78;99047.02;1765688;79;21295;-76
2022/02/17 12:34:18;;;;;;;16.27;9.70;;;;;;;8.91;60.91;99048.11;1747446;81;21969;-76
2022/02/17 12:37:26;;;;;;;13.28;8.93;;;;;;;8.98;60.58;99056.33;1766831;81;21596;-76
2022/02/17 12:40:35;;;;;;;14.95;8.50;;;;;;;9.04;60.47;99060.50;1746096;81;21297;-76
2022/02/17 12:43:45;;;;;;;15.70;9.40;;;;;;;9.15;60.22;99040.02;1743603;81;21315;-76
2022/02/17 12:46:50;;;;;;;14.03;8.68;;;;;;;9.25;59.65;99044.59;1742717;81;21974;-75
2022/02/17 12:49:56;;;;;;;13.90;8.55;;;;;;;9.31;59.81;99042.43;1688860;84;21767;-75
2022/02/17 12:53:03;;;;;;;14.38;8.30;;;;;;;9.38;60.12;99031.58;1765954;81;21640;-76
2022/02/17 12:56:10;;;;;;;15.32;9.98;;;;;;;9.44;60.12;99017.96;1764680;81;21516;-75
2022/02/17 12:59:24;;;;;;;19.02;10.00;;;;;;;9.53;59.68;99015.92;1760717;79;21315;-75
2022/02/17 13:02:29;;;;;;;20.10;10.32;;;;;;;9.63;59.68;99004.63;1764762;80;21821;-76
2022/02/17 13:09:28;;;;;;;16.40;9.33;;;;;;;9.73;58.10;98987.35;1756362;80;21270;-75
2022/02/17 13:12:33;;;;;;;18.57;10.55;;;;;;;9.82;58.25;98989.39;1762038;80;21319;-85
2022/02/17 13:15:39;;;;;;;15.10;9.33;;;;;;;9.89;57.94;98983.45;1770418;79;21201;-85
2022/02/17 13:18:46;;;;;;;17.82;9.38;;;;;;;9.90;57.54;98987.33;1766865;80;21783;-75
2022/02/17 13:22:02;;;;;;;16.40;8.95;;;;;;;9.94;57.95;98980.42;1752953;80;21339;-76
2022/02/17 13:25:11;;;;;;;17.20;10.08;;;;;;;9.97;57.16;98981.39;1762543;79;21298;-85
2022/02/17 13:28:25;;;;;;;22.77;9.68;;;;;;;9.98;57.35;98969.41;1766850;80;21822;-85
2022/02/17 13:31:41;;;;;;;17.65;9.18;;;;;;;9.93;57.31;98952.79;1757450;80;21733;-85
2022/02/17 13:34:47;;;;;;;13.72;9.25;;;;;;;9.82;57.68;98932.88;1767100;80;21265;-84
2022/02/17 13:37:58;;;;;;;14.23;7.58;;;;;;;9.72;57.67;98934.63;1767281;80;21338;-83
2022/02/17 13:41:07;;;;;;;14.33;7.42;;;;;;;9.61;57.75;98926.20;1771417;80;21876;-75
2022/02/17 13:44:13;;;;;;;12.28;8.03;;;;;;;9.45;57.62;98922.75;1767127;80;21522;-85
2022/02/17 13:47:22;;;;;;;23.30;8.53;;;;;;;9.35;58.09;98918.19;1764169;80;21326;-76
2022/02/17 13:50:29;;;;;;;13.95;7.53;;;;;;;9.28;57.96;98915.12;1759710;80;21296;-75
2022/02/17 13:53:46;;;;;;;16.00;8.75;;;;;;;9.20;58.12;98904.69;1777418;80;21274;-85
2022/02/17 13:56:54;;;;;;;18.73;8.68;;;;;;;9.12;58.14;98895.82;1754412;81;21228;-76
2022/02/17 14:00:02;;;;;;;11.57;7.70;;;;;;;9.03;57.97;98882.02;1766811;80;21983;-76
2022/02/17 14:03:39;;;;;;;10.60;7.67;;;;;;;8.95;58.06;98875.70;1741107;81;21331;-84
2022/02/17 14:06:46;;;;;;;15.80;8.83;;;;;;;8.89;58.54;98860.16;1739301;81;21319;-84
2022/02/17 14:09:53;;;;;;;12.33;8.25;;;;;;;8.83;58.84;98865.03;1752394;81;21857;-75
2022/02/17 14:13:00;;;;;;;11.63;6.80;;;;;;;8.80;58.88;98860.00;1755276;81;21872;-75
2022/02/17 14:16:07;;;;;;;12.47;7.28;;;;;;;8.78;59.25;98855.24;1746225;81;21699;-76
2022/02/17 14:19:12;;;;;;;11.55;7.12;;;;;;;8.76;59.25;98851.89;1704195;84;22146;-80
2022/02/17 14:22:17;;;;;;;9.75;6.90;;;;;;;8.74;59.70;98847.14;1744548;81;21740;-76
2022/02/17 14:25:26;;;;;;;16.40;8.18;;;;;;;8.73;59.92;98844.09;1757865;79;21301;-86
2022/02/17 14:28:32;;;;;;;14.00;7.53;;;;;;;8.70;60.37;98842.63;1745000;81;21415;-77
2022/02/17 14:31:37;;;;;;;14.87;8.00;;;;;;;8.67;60.99;98836.73;1743199;81;21340;-75
2022/02/17 14:38:07;;;;;;;19.15;8.65;;;;;;;8.56;61.69;98822.28;1757803;79;21363;-76
2022/02/17 14:41:12;;;;;;;18.70;8.60;;;;;;;8.48;62.18;98812.91;1719334;82;21325;-76
2022/02/17 14:44:18;;;;;;;19.60;8.40;;;;;;;8.35;61.82;98807.65;1753122;81;21634;-76
2022/02/17 14:47:25;;;;;;;15.93;9.15;;;;;;;8.20;62.67;98817.81;1747020;81;21257;-75